Tiempo atmosférico en la estación meteorológica de Alconchel, Badajoz (170 m.)



Fecha
DESCASC
Temp. máxima en grados centígrados (hora)
DESCASC
Temp. mínima en grados centígrados (hora)
DESCASC
Temp. media en grados centígrados
DESCASC
Racha de viento máxima en m/sg (hora)
DESCASC
Velocidad máxima media en intervalos de 10 minutos(hora)
DESCASC
Precipitaciones diarias en mm
DESCASC
Precipitaciones de 00:00 a 06:00 en mm
DESCASC
Precipitaciones de 06:00 a 12:00 en mm
DESCASC
Precipitaciones de 12:00 a 18:00 en mm
DESCASC
Precipitaciones de 18:00 a 24:00 en mm
DESCASC
23-06-2019 30.1 (17:10) 14 (06:50) 22.1 7.5 (19:00) 5.56 (14:10) 0 0 0 0 0
22-06-2019 32.2 (19:00) 12.9 (07:30) 22.6 9.17 (21:00) 6.11 (21:10) 0 0 0 0 0
21-06-2019 30 (18:00) 12.8 (07:20) 21.4 11.11 (16:40) 7.5 (00:10) 0 0 0 0 0
20-06-2019 26.1 (16:50) 15.9 (00:00) 21 11.67 (17:00) 7.22 (23:50) 0 0 0 0 0
19-06-2019 25.8 (19:10) 17.3 (00:00) 21.5 8.33 (11:50) 5.56 (11:50) 0 0 0 0 0
18-06-2019 26 (18:20) 12.4 (00:00) 19.2 13.61 (16:30) 9.44 (16:00) 0 0 0 0 0
17-06-2019 29.7 (19:30) 12.5 (00:00) 21.1 11.11 (17:20) 7.22 (17:20) 0 0 0 0 0
16-06-2019 29.9 (18:50) 12.3 (00:00) 21.1 8.61 (00:10) 5.28 (20:50) 0 0 0 0 0
15-06-2019 26.8 (19:20) 9.8 (00:00) 18.3 8.33 (23:59) 5.28 (23:59) 0 0 0 0 0
14-06-2019 21.9 (18:00) 10.7 (00:00) 16.3 10 (18:10) 6.67 (18:10) 0 0 0 0 0
13-06-2019 26.4 (18:00) 9.3 (00:00) 17.8 10.56 (22:40) 6.94 (21:40) 0 0 0 0 0
12-06-2019 28.8 (17:50) 10.7 (00:00) 19.7 10.28 (21:20) 7.22 (21:20) 0 0 0 0 0
11-06-2019 26.9 (17:40) 12 (00:00) 19.4 12.78 (19:40) 6.67 (17:50) 0 0 0 0 0
10-06-2019 27.8 (17:00) 11.6 (00:00) 19.7 10.83 (21:00) 7.78 (21:00) 0 0 0 0 0
09-06-2019 26.5 (17:40) 9.6 (00:00) 18.1 11.67 (22:20) 7.22 (21:00) 0 0 0 0 0
08-06-2019 28.6 (17:30) 9.3 (00:00) 19 11.94 (21:00) 7.5 (21:00) 0 0 0 0 0
07-06-2019 23.1 (18:40) 10.8 (00:00) 17 9.17 (23:59) 5.83 (23:59) 0.2 0.2 0 0 0
06-06-2019 23.3 (18:20) 9 (00:00) 16.1 12.78 (23:20) 8.61 (17:50) 0 0 0 0 0
05-06-2019 23.1 (18:30) 11.2 (00:00) 17.2 13.89 (13:50) 6.39 (13:50) 0 0 0 0 0
04-06-2019 25.5 (16:40) 15.1 (00:00) 20.3 13.89 (18:10) 9.72 (18:40) 0 0 0 0 0
03-06-2019 33.7 (16:20) 17.2 (00:00) 25.5 10.83 (20:00) 7.22 (20:00) 0 0 0 0 0
02-06-2019 36.7 (17:40) 18.7 (00:00) 27.7 10.83 (20:40) 7.5 (20:50) 0 0 0 0 0
01-06-2019 37 (18:00) 17.8 (00:00) 27.4 12.5 (14:40) 7.5 (23:00) 0 0 0 0 0
31-05-2019 35.4 (17:20) 15.4 (00:00) 25.4 10.83 (19:10) 5.28 (20:00) 0 0 0 0 0
30-05-2019 34.9 (18:00) 17.6 (00:00) 26.3 -- (--) -- (--) 0 0 0 0 0
29-05-2019 32.1 (17:20) 18.3 (00:00) 25.2 12.5 (12:00) 6.67 (10:20) 0 0 0 0 0
28-05-2019 33.6 (17:50) 13.6 (00:00) 23.6 9.72 (18:50) 5.83 (18:10) 0 0 0 0 0
27-05-2019 33 (16:20) 15.6 (00:00) 24.3 10.28 (19:50) 6.67 (19:20) 0 0 0 0 0
26-05-2019 33 (19:10) 16.4 (00:00) 24.7 11.94 (18:10) 6.94 (05:50) 0 0 0 0 0

Gráficas

Temp. máximas Temp. mínimas Temp. medias Precipitaciones Rachas de viento máximas Velocidades máximas media en intervalos de 10 minutos

Datos horarios

Fecha y hora oficial Temperatura (ºC) Velocidad del viento (km/h) Dirección del viento Racha (km/h) Dirección de racha Precipitación (mm) Presión (hPa) Tendencia (hPa) Humedad (%)
2019-06-24 23:00:00 -- -- -- -- -- -- -- -- --
2019-06-24 22:00:00 21.6 9 Norte 26 Norte 0 -- -- 50
2019-06-24 21:00:00 22.5 18 Norte 33 Nordeste 0 -- -- 48
2019-06-24 20:00:00 24.1 22 Norte 34 Nordeste 0 -- -- 44
2019-06-24 19:00:00 25.1 19 Nordeste 29 Noroeste 0 -- -- 45
2019-06-24 18:00:00 26.5 17 Norte 29 Norte 0 -- -- 48
2019-06-24 17:00:00 27.5 17 Noroeste 26 Noroeste 0 -- -- 52
2019-06-24 16:00:00 25.5 14 Noroeste 33 Oeste 0 -- -- 62
2019-06-24 15:00:00 25.2 16 Noroeste 36 Oeste 0 -- -- 67
2019-06-24 14:00:00 26.8 14 Sudoeste 23 Sudoeste 0 -- -- 56
2019-06-24 13:00:00 25.9 16 Oeste 26 Oeste 0 -- -- 58
2019-06-24 12:00:00 24.6 10 Sudoeste 16 Sudoeste 0 -- -- 65
2019-06-24 11:00:00 23.6 6 Oeste 14 Sur 0 -- -- 70
2019-06-24 10:00:00 21.7 5 Sudoeste 10 Oeste 0 -- -- 79
2019-06-24 09:00:00 20.2 6 Oeste 12 Oeste 0 -- -- 85
2019-06-24 08:00:00 19.8 5 Noroeste 9 Noroeste 0 -- -- 86
2019-06-24 07:00:00 19.2 3 Sudoeste 8 Noroeste 0 -- -- 88
2019-06-24 06:00:00 19.8 0 Calma 6 Oeste 0 -- -- 86
2019-06-24 05:00:00 20.1 4 Oeste 12 Oeste 0 -- -- 86
2019-06-24 04:00:00 20.3 8 Oeste 12 Oeste 0 -- -- 84
2019-06-24 03:00:00 20.6 8 Oeste 14 Oeste 0 -- -- 82
2019-06-24 02:00:00 21.2 9 Oeste 19 Oeste 0 -- -- 79
2019-06-24 01:00:00 22 12 Noroeste 23 Noroeste 0 -- -- 75
2019-06-24 00:00:00 23.4 15 Noroeste 27 Noroeste 0 -- -- 68
2019-06-23 23:00:00 24.7 12 Noroeste 26 Noroeste 0 -- -- 62
2019-06-23 22:00:00 26.1 14 Noroeste 24 Noroeste 0 -- -- 54
2019-06-23 21:00:00 28 17 Noroeste 24 Noroeste 0 -- -- 48
2019-06-23 20:00:00 27.8 14 Noroeste 27 Noroeste 0 -- -- 48
2019-06-23 19:00:00 28.5 20 Noroeste 27 Oeste 0 -- -- 46
2019-06-23 18:00:00 29.8 15 Sudoeste 22 Sudoeste 0 -- -- 30
2019-06-23 17:00:00 29.6 14 Sudoeste 22 Sudoeste 0 -- -- 28
2019-06-23 16:00:00 29.7 17 Sudoeste 26 Oeste 0 -- -- 23
2019-06-23 15:00:00 28.6 18 Oeste 27 Oeste 0 -- -- 25
2019-06-23 14:00:00 27.6 17 Oeste 27 Oeste 0 -- -- 30
2019-06-23 13:00:00 25.6 8 Oeste 14 Oeste 0 -- -- 41
2019-06-23 12:00:00 23.9 6 Oeste 11 Oeste 0 -- -- 41
2019-06-23 11:00:00 21.2 8 Oeste 13 Oeste 0 -- -- 54
2019-06-23 10:00:00 19.1 3 Sur 6 Sudoeste 0 -- -- 60
2019-06-23 09:00:00 16.4 0 Calma 4 Oeste 0 -- -- 69
2019-06-23 08:00:00 14.7 0 Calma 8 Sudeste 0 -- -- 67
2019-06-23 07:00:00 14 5 Sudeste 9 Sudeste 0 -- -- 69
2019-06-23 06:00:00 14.6 6 Sudeste 9 Sudeste 0 -- -- 69
2019-06-23 05:00:00 16.1 4 Noroeste 9 Sudoeste 0 -- -- 68
2019-06-23 04:00:00 17 6 Sudoeste 9 Sudoeste 0 -- -- 66
2019-06-23 03:00:00 17.7 5 Oeste 14 Oeste 0 -- -- 58
2019-06-23 02:00:00 19.2 9 Oeste 14 Oeste 0 -- -- 51
2019-06-23 01:00:00 20.5 8 Oeste 23 Oeste 0 -- -- 47
2019-06-23 00:00:00 22.4 10 Oeste 22 Noroeste 0 -- -- 37
2019-06-22 23:00:00 24.6 13 Oeste 28 Noroeste 0 -- -- 30
2019-06-22 22:00:00 26.6 16 Noroeste 33 Noroeste 0 -- -- 24
2019-06-22 21:00:00 29.9 21 Noroeste 33 Noroeste 0 -- -- 19
2019-06-22 20:00:00 31.6 17 Oeste 27 Oeste 0 -- -- 16
2019-06-22 19:00:00 32.2 14 Oeste 27 Oeste 0 -- -- 16
2019-06-22 18:00:00 31.8 18 Sudoeste 26 Sudoeste 0 -- -- 19
2019-06-22 17:00:00 31.4 19 Sudoeste 30 Sudoeste 0 -- -- 20
2019-06-22 16:00:00 30.9 19 Sudoeste 27 Sudoeste 0 -- -- 21
2019-06-22 15:00:00 29.4 19 Oeste 27 Oeste 0 -- -- 22
2019-06-22 14:00:00 28.3 17 Sudoeste 23 Sudoeste 0 -- -- 22
2019-06-22 13:00:00 27 9 Oeste 16 Oeste 0 -- -- 19
2019-06-22 12:00:00 24 8 Oeste 13 Oeste 0 -- -- 38
2019-06-22 11:00:00 21.4 7 Oeste 13 Oeste 0 -- -- 53
2019-06-22 10:00:00 18.4 5 Oeste 10 Oeste 0 -- -- 61
2019-06-22 09:00:00 16.4 4 Sudoeste 7 Oeste 0 -- -- 66
2019-06-22 08:00:00 14.2 4 Sudeste 8 Sudeste 0 -- -- 68
2019-06-22 07:00:00 13.7 3 Este 8 Norte 0 -- -- 72
2019-06-22 06:00:00 14.2 3 Nordeste 6 Noroeste 0 -- -- 68
2019-06-22 05:00:00 15.5 2 Noroeste 6 Noroeste 0 -- -- 64
2019-06-22 04:00:00 16.4 3 Norte 9 Norte 0 -- -- 60
2019-06-22 03:00:00 17.4 6 Norte 18 Norte 0 -- -- 58
2019-06-22 02:00:00 19 12 Norte 18 Norte 0 -- -- 53
2019-06-22 01:00:00 19.6 7 Nordeste 17 Norte 0 -- -- 52
2019-06-22 00:00:00 21.8 14 Norte 23 Norte 0 -- -- 47
2019-06-21 23:00:00 23.3 12 Noroeste 21 Noroeste 0 -- -- 45
2019-06-21 22:00:00 25.7 17 Noroeste 30 Noroeste 0 -- -- 39
2019-06-21 21:00:00 28.2 19 Noroeste 26 Noroeste 0 -- -- 31
2019-06-21 20:00:00 29.4 15 Noroeste 26 Norte 0 -- -- 28
2019-06-21 19:00:00 29.2 12 Noroeste 30 Norte 0 -- -- 28
2019-06-21 18:00:00 30 10 Norte 23 Norte 0 -- -- 28
2019-06-21 17:00:00 29.7 10 Noroeste 40 Oeste 0 -- -- 28
2019-06-21 16:00:00 28.9 10 Oeste 26 Oeste 0 -- -- 34
2019-06-21 15:00:00 26.9 13 Oeste 23 Oeste 0 -- -- 39
2019-06-21 14:00:00 25.7 9 Oeste 18 Sudoeste 0 -- -- 43
2019-06-21 13:00:00 23.5 10 Oeste 17 Oeste 0 -- -- 50
2019-06-21 12:00:00 21.4 8 Oeste 16 Sudoeste 0 -- -- 55
2019-06-21 11:00:00 18.7 7 Oeste 14 Oeste 0 -- -- 64
2019-06-21 10:00:00 16.6 8 Oeste 13 Oeste 0 -- -- 72
2019-06-21 09:00:00 15.5 5 Oeste 10 Oeste 0 -- -- 77
2019-06-21 08:00:00 14.1 0 Calma 5 Noroeste 0 -- -- 84
2019-06-21 07:00:00 13.1 4 Norte 9 Noroeste 0 -- -- 85
2019-06-21 06:00:00 13.6 0 Calma 4 Sudoeste 0 -- -- 84
2019-06-21 05:00:00 13.7 0 Calma 10 Noroeste 0 -- -- 83
2019-06-21 04:00:00 14.1 6 Noroeste 15 Noroeste 0 -- -- 81
2019-06-21 03:00:00 15 7 Noroeste 22 Noroeste 0 -- -- 76
2019-06-21 02:00:00 16.2 14 Noroeste 33 Norte 0 -- -- 70
2019-06-21 01:00:00 17.3 17 Noroeste 37 Noroeste 0 -- -- 66
2019-06-21 00:00:00 18.7 24 Noroeste 35 Noroeste 0 -- -- 60
2019-06-20 23:00:00 20.4 20 Noroeste 32 Noroeste 0 -- -- 54
2019-06-20 22:00:00 21.7 20 Noroeste 29 Noroeste 0 -- -- 50
2019-06-20 21:00:00 23.9 14 Norte 32 Noroeste 0 -- -- 43
2019-06-20 20:00:00 24.4 19 Noroeste 33 Oeste 0 -- -- 42
2019-06-20 19:00:00 24.9 21 Noroeste 35 Oeste 0 -- -- 42
2019-06-20 18:00:00 25.5 19 Oeste 37 Noroeste 0 -- -- 42
2019-06-20 17:00:00 25.9 21 Noroeste 42 Noroeste 0 -- -- 41
2019-06-20 16:00:00 25.3 18 Oeste 32 Noroeste 0 -- -- 40
2019-06-20 15:00:00 25.1 17 Oeste 27 Oeste 0 -- -- 41
2019-06-20 14:00:00 24.1 12 Oeste 26 Oeste 0 -- -- 45
2019-06-20 13:00:00 23.5 13 Oeste 26 Oeste 0 -- -- 47
2019-06-20 12:00:00 22.6 12 Oeste 19 Oeste 0 -- -- 51
2019-06-20 11:00:00 20 6 Oeste 19 Oeste 0 -- -- 61
2019-06-20 10:00:00 18.5 9 Norte 17 Noroeste 0 -- -- 66
2019-06-20 09:00:00 17.2 6 Oeste 10 Norte 0 -- -- 76
2019-06-20 08:00:00 16.1 7 Noroeste 11 Noroeste 0 -- -- 80
2019-06-20 07:00:00 15.9 4 Norte 6 Norte 0 -- -- 83
2019-06-20 06:00:00 16.2 0 Calma 4 Noroeste 0 -- -- 84
2019-06-20 05:00:00 16.4 0 Calma 9 Noroeste 0 -- -- 85
2019-06-20 04:00:00 16.8 6 Noroeste 14 Oeste 0 -- -- 85
2019-06-20 03:00:00 17.1 8 Oeste 14 Oeste 0 -- -- 85
2019-06-20 02:00:00 17.7 6 Oeste 18 Oeste 0 -- -- 80
2019-06-20 01:00:00 18.7 9 Noroeste 18 Noroeste 0 -- -- 72
2019-06-20 00:00:00 19.6 13 Noroeste 20 Oeste 0 -- -- 66
2019-06-19 23:00:00 21 13 Noroeste 24 Oeste 0 -- -- 62
2019-06-19 22:00:00 22.6 17 Noroeste 27 Oeste 0 -- -- 57
2019-06-19 21:00:00 24.6 14 Noroeste 25 Oeste 0 -- -- 52
2019-06-19 20:00:00 25.6 13 Noroeste 22 Oeste 0 -- -- 50
2019-06-19 19:00:00 25.6 13 Oeste 23 Noroeste 0 -- -- 51
2019-06-19 18:00:00 24.2 9 Sudoeste 19 Sudoeste 0 -- -- 58
2019-06-19 17:00:00 24.2 13 Oeste 19 Sudoeste 0 -- -- 58
2019-06-19 16:00:00 23.9 12 Sudoeste 22 Sudoeste 0 -- -- 56
2019-06-19 15:00:00 23.6 12 Oeste 26 Sudoeste 0 -- -- 58
2019-06-19 14:00:00 22.5 17 Sudoeste 25 Oeste 0 -- -- 62
2019-06-19 13:00:00 22 14 Sudoeste 19 Sudoeste 0 -- -- 63
2019-06-19 12:00:00 20.1 15 Sudoeste 30 Oeste 0 -- -- 74
2019-06-19 11:00:00 20.2 16 Sudoeste 23 Oeste 0 -- -- 76
2019-06-19 10:00:00 19.1 11 Sudoeste 18 Sur 0 -- -- 79
2019-06-19 09:00:00 18.3 12 Sur 17 Sur 0 -- -- 83
2019-06-19 08:00:00 17.6 13 Sur 17 Sur 0 -- -- 85
2019-06-19 07:00:00 17.6 12 Sudoeste 17 Sur 0 -- -- 87
2019-06-19 06:00:00 17.4 9 Sur 16 Sudoeste 0 -- -- 87
2019-06-19 05:00:00 17.4 13 Oeste 21 Oeste 0 -- -- 87
2019-06-19 04:00:00 17.4 13 Oeste 19 Sudoeste 0 -- -- 86
2019-06-19 03:00:00 17.9 8 Oeste 19 Oeste 0 -- -- 81
2019-06-19 02:00:00 18.8 12 Oeste 22 Oeste 0 -- -- 74
2019-06-19 01:00:00 19 10 Oeste 17 Oeste 0 -- -- 70
2019-06-19 00:00:00 20 14 Oeste 23 Oeste 0 -- -- 65
2019-06-18 23:00:00 21.4 16 Noroeste 28 Oeste 0 -- -- 60
2019-06-18 22:00:00 22.7 21 Oeste 36 Oeste 0 -- -- 55
2019-06-18 21:00:00 24.7 23 Oeste 40 Noroeste 0 -- -- 49
2019-06-18 20:00:00 25.6 23 Sudoeste 41 Sudoeste 0 -- -- 52
2019-06-18 19:00:00 24.9 30 Sudoeste 44 Sudoeste 0 -- -- 52
2019-06-18 18:00:00 25.1 27 Sudoeste 42 Sudoeste 0 -- -- 56
2019-06-18 17:00:00 24.5 28 Sudoeste 49 Sudoeste 0 -- -- 57
2019-06-18 16:00:00 24.9 34 Sudoeste 45 Sudoeste 0 -- -- 55
2019-06-18 15:00:00 24.2 29 Sudoeste 44 Sudoeste 0 -- -- 56
2019-06-18 14:00:00 23.4 23 Sudoeste 39 Sudoeste 0 -- -- 59
2019-06-18 13:00:00 21.8 23 Sudoeste 35 Sudoeste 0 -- -- 67
2019-06-18 12:00:00 20.9 21 Sudoeste 36 Sur 0 -- -- 67
2019-06-18 11:00:00 20.7 16 Sur 28 Sur 0 -- -- 64
2019-06-18 10:00:00 18.9 13 Sur 24 Sur 0 -- -- 69
2019-06-18 09:00:00 16.9 10 Sur 17 Sur 0 -- -- 73
2019-06-18 08:00:00 13.8 5 Sudeste 15 Sudeste 0 -- -- 81
2019-06-18 07:00:00 12.8 8 Sur 12 Sur 0 -- -- 84
2019-06-18 06:00:00 13.5 8 Sudeste 10 Sudeste 0 -- -- 84
2019-06-18 05:00:00 14.1 6 Oeste 17 Oeste 0 -- -- 82
2019-06-18 04:00:00 14.4 5 Oeste 17 Oeste 0 -- -- 81
2019-06-18 03:00:00 15.4 11 Oeste 17 Oeste 0 -- -- 73
2019-06-18 02:00:00 16.7 10 Oeste 19 Oeste 0 -- -- 58
2019-06-18 01:00:00 18 10 Oeste 21 Noroeste 0 -- -- 56
2019-06-18 00:00:00 19.8 11 Noroeste 27 Noroeste 0 -- -- 51
2019-06-17 23:00:00 21.9 18 Noroeste 26 Oeste 0 -- -- 49
2019-06-17 22:00:00 23.8 9 Oeste 23 Noroeste 0 -- -- 44
2019-06-17 21:00:00 25.8 18 Noroeste 34 Oeste 0 -- -- 40
2019-06-17 20:00:00 29 21 Sudoeste 31 Sudoeste 0 -- -- 21
2019-06-17 19:00:00 29.3 22 Oeste 36 Sudoeste 0 -- -- 19
2019-06-17 18:00:00 29.4 24 Oeste 40 Oeste 0 -- -- 24
2019-06-17 17:00:00 29.1 23 Sudoeste 34 Oeste 0 -- -- 22
2019-06-17 16:00:00 28.7 21 Oeste 33 Oeste 0 -- -- 26
2019-06-17 15:00:00 28.2 21 Oeste 34 Sudoeste 0 -- -- 27
2019-06-17 14:00:00 26.4 18 Oeste 27 Oeste 0 -- -- 30
2019-06-17 13:00:00 24.8 14 Oeste 25 Oeste 0 -- -- 37
2019-06-17 12:00:00 23.4 13 Oeste 24 Sur 0 -- -- 40
2019-06-17 11:00:00 21 7 Sudoeste 12 Oeste 0 -- -- 49
2019-06-17 10:00:00 18.8 2 Oeste 8 Sudoeste 0 -- -- 57
2019-06-17 09:00:00 16.7 3 Sudeste 7 Sudeste 0 -- -- 64
2019-06-17 08:00:00 13.8 0 Calma 6 Sudeste 0 -- -- 71
2019-06-17 07:00:00 12.8 4 Sudeste 7 Sudeste 0 -- -- 73
2019-06-17 06:00:00 13.1 8 Sudeste 9 Sudeste 0 -- -- 72
2019-06-17 05:00:00 13.8 5 Este 7 Este 0 -- -- 71
2019-06-17 04:00:00 15.6 0 Calma 4 Noroeste 0 -- -- 68
2019-06-17 03:00:00 16.7 3 Oeste 9 Noroeste 0 -- -- 65
2019-06-17 02:00:00 17.5 7 Noroeste 9 Noroeste 0 -- -- 62
2019-06-17 01:00:00 19.2 7 Noroeste 15 Noroeste 0 -- -- 58
2019-06-17 00:00:00 21.2 7 Noroeste 20 Noroeste 0 -- -- 51
2019-06-16 23:00:00 23.4 9 Noroeste 23 Noroeste 0 -- -- 33
2019-06-16 22:00:00 25.8 14 Noroeste 26 Noroeste 0 -- -- 32
2019-06-16 21:00:00 28.2 17 Noroeste 30 Noroeste 0 -- -- 26
2019-06-16 20:00:00 29.5 18 Oeste 30 Oeste 0 -- -- 26
2019-06-16 19:00:00 29.7 17 Sudoeste 26 Sudoeste 0 -- -- 24
2019-06-16 18:00:00 29.3 16 Sudoeste 22 Sudoeste 0 -- -- 24
2019-06-16 17:00:00 28.7 14 Sudoeste 23 Sudoeste 0 -- -- 19
2019-06-16 16:00:00 27.8 12 Oeste 18 Sudoeste 0 -- -- 26
2019-06-16 15:00:00 28.3 11 Oeste 17 Sudoeste 0 -- -- 25
2019-06-16 14:00:00 26.1 11 Oeste 17 Noroeste 0 -- -- 29
2019-06-16 13:00:00 24.9 4 Noroeste 16 Norte 0 -- -- 36
2019-06-16 12:00:00 22.6 8 Norte 13 Norte 0 -- -- 44
2019-06-16 11:00:00 18.9 5 Oeste 9 Oeste 0 -- -- 57
2019-06-16 10:00:00 17.3 3 Oeste 8 Sudoeste 0 -- -- 61
2019-06-16 09:00:00 15.8 0 Calma 6 Nordeste 0 -- -- 63
2019-06-16 08:00:00 13.1 4 Nordeste 5 Norte 0 -- -- 73
2019-06-16 07:00:00 12.4 4 Nordeste 6 Norte 0 -- -- 74
2019-06-16 06:00:00 13.1 0 Calma 8 Nordeste 0 -- -- 71
2019-06-16 05:00:00 13.9 4 Nordeste 5 Norte 0 -- -- 69
2019-06-16 04:00:00 14.4 4 Norte 6 Norte 0 -- -- 67
2019-06-16 03:00:00 15.6 0 Calma 8 Norte 0 -- -- 63
2019-06-16 02:00:00 16.7 5 Norte 26 Norte 0 -- -- 59
2019-06-16 01:00:00 18.1 17 Norte 31 Norte 0 -- -- 55
2019-06-16 00:00:00 19.7 19 Norte 30 Norte 0 -- -- 53
2019-06-15 23:00:00 21 11 Norte 15 Norte 0 -- -- 38
2019-06-15 22:00:00 23.4 9 Norte 19 Norte 0 -- -- 33
2019-06-15 21:00:00 26.1 9 Norte 26 Norte 0 -- -- 27
2019-06-15 20:00:00 26.6 7 Oeste 22 Norte 0 -- -- 27
2019-06-15 19:00:00 26.4 10 Norte 21 Noroeste 0 -- -- 27
2019-06-15 18:00:00 26.1 8 Norte 23 Norte 0 -- -- 28
2019-06-15 17:00:00 26.2 10 Oeste 22 Norte 0 -- -- 28
2019-06-15 16:00:00 24.9 6 Noroeste 23 Oeste 0 -- -- 32
2019-06-15 15:00:00 23.5 5 Este 22 Noroeste 0 -- -- 36
2019-06-15 14:00:00 22.4 9 Oeste 20 Oeste 0 -- -- 40
2019-06-15 13:00:00 21 7 Norte 24 Norte 0 -- -- 41
2019-06-15 12:00:00 19.4 5 Nordeste 20 Sudeste 0 -- -- 49
2019-06-15 11:00:00 17.2 6 Oeste 13 Oeste 0 -- -- 60
2019-06-15 10:00:00 15.6 6 Oeste 10 Noroeste 0 -- -- 69
2019-06-15 09:00:00 14.3 0 Calma 4 Sur 0 -- -- 71
2019-06-15 08:00:00 11.6 2 Este 9 Sudeste 0 -- -- 79
2019-06-15 07:00:00 10 5 Sudeste 8 Nordeste 0 -- -- 83
2019-06-15 06:00:00 11.1 8 Norte 10 Norte 0 -- -- 81
2019-06-15 05:00:00 12.1 0 Calma 5 Este 0 -- -- 76
2019-06-15 04:00:00 12.7 3 Norte 6 Norte 0 -- -- 74
2019-06-15 03:00:00 13.1 4 Norte 14 Noroeste 0 -- -- 72
2019-06-15 02:00:00 14.1 9 Noroeste 14 Noroeste 0 -- -- 71
2019-06-15 01:00:00 15.1 9 Noroeste 25 Oeste 0 -- -- 64
2019-06-15 00:00:00 16.2 17 Noroeste 28 Noroeste 0 -- -- 59
2019-06-14 23:00:00 17.2 13 Noroeste 23 Noroeste 0 -- -- 53
2019-06-14 22:00:00 18.8 15 Noroeste 26 Noroeste 0 -- -- 47
2019-06-14 21:00:00 19.4 17 Noroeste 29 Noroeste 0 -- -- 45
2019-06-14 20:00:00 20.9 18 Noroeste 29 Noroeste 0 -- -- 43
2019-06-14 19:00:00 20.7 17 Noroeste 36 Noroeste 0 -- -- 45
2019-06-14 18:00:00 21.9 18 Noroeste 33 Noroeste 0 -- -- 39
2019-06-14 17:00:00 20.9 16 Noroeste 32 Noroeste 0 -- -- 40
2019-06-14 16:00:00 20.2 16 Noroeste 31 Oeste 0 -- -- 42
2019-06-14 15:00:00 20.3 18 Noroeste 32 Oeste 0 -- -- 39
2019-06-14 14:00:00 19.9 15 Noroeste 30 Noroeste 0 -- -- 41
2019-06-14 13:00:00 18.9 21 Oeste 32 Oeste 0 -- -- 45
2019-06-14 12:00:00 17.4 17 Noroeste 29 Oeste 0 -- -- 53
2019-06-14 11:00:00 16.7 18 Oeste 29 Oeste 0 -- -- 57
2019-06-14 10:00:00 14.8 14 Noroeste 23 Oeste 0 -- -- 66
2019-06-14 09:00:00 12.7 9 Noroeste 17 Noroeste 0 -- -- 80
2019-06-14 08:00:00 11.2 11 Noroeste 17 Oeste 0 -- -- 85
2019-06-14 07:00:00 11 9 Noroeste 17 Oeste 0 -- -- 85
2019-06-14 06:00:00 11.2 13 Noroeste 17 Noroeste 0 -- -- 84
2019-06-14 05:00:00 11.1 8 Noroeste 19 Noroeste 0 -- -- 79
2019-06-14 04:00:00 12.5 13 Noroeste 18 Noroeste 0 -- -- 74
2019-06-14 03:00:00 13.4 10 Noroeste 17 Norte 0 -- -- 68
2019-06-14 02:00:00 14.1 10 Noroeste 21 Noroeste 0 -- -- 62
2019-06-14 01:00:00 15.1 11 Noroeste 26 Noroeste 0 -- -- 57
2019-06-14 00:00:00 16.5 17 Norte 35 Noroeste 0 -- -- 51
2019-06-13 23:00:00 18.2 22 Noroeste 38 Norte 0 -- -- 45
2019-06-13 22:00:00 20.5 22 Noroeste 35 Noroeste 0 -- -- 39
2019-06-13 21:00:00 23.8 22 Noroeste 33 Noroeste 0 -- -- 30
2019-06-13 20:00:00 25.2 19 Noroeste 32 Noroeste 0 -- -- 26
2019-06-13 19:00:00 25.5 20 Oeste 32 Oeste 0 -- -- 24
2019-06-13 18:00:00 26.4 16 Oeste 28 Noroeste 0 -- -- 22
2019-06-13 17:00:00 25.5 14 Oeste 29 Oeste 0 -- -- 24
2019-06-13 16:00:00 24.7 7 Oeste 20 Sudoeste 0 -- -- 28
2019-06-13 15:00:00 22.9 10 Sudoeste 18 Sudoeste 0 -- -- 33
2019-06-13 14:00:00 21.7 6 Noroeste 15 Sudoeste 0 -- -- 38
2019-06-13 13:00:00 19.3 7 Oeste 19 Sudoeste 0 -- -- 45
2019-06-13 12:00:00 17.3 10 Oeste 18 Sudoeste 0 -- -- 54
2019-06-13 11:00:00 15.2 6 Oeste 14 Oeste 0 -- -- 62
2019-06-13 10:00:00 13.5 5 Oeste 13 Oeste 0 -- -- 71
2019-06-13 09:00:00 11.8 9 Noroeste 14 Noroeste 0 -- -- 78
2019-06-13 08:00:00 10.7 3 Norte 8 Noroeste 0 -- -- 84
2019-06-13 07:00:00 9.3 6 Norte 11 Noroeste 0 -- -- 87
2019-06-13 06:00:00 9.5 8 Noroeste 12 Noroeste 0 -- -- 84
2019-06-13 05:00:00 10.6 7 Noroeste 13 Noroeste 0 -- -- 76
2019-06-13 04:00:00 11.9 10 Noroeste 20 Noroeste 0 -- -- 70
2019-06-13 03:00:00 12.2 8 Noroeste 13 Noroeste 0 -- -- 64
2019-06-13 02:00:00 13.2 5 Norte 15 Norte 0 -- -- 57
2019-06-13 01:00:00 14.9 10 Norte 24 Norte 0 -- -- 50
2019-06-13 00:00:00 16.6 16 Norte 30 Norte 0 -- -- 43
2019-06-12 23:00:00 19.1 17 Norte 36 Noroeste 0 -- -- 40
2019-06-12 22:00:00 21.7 24 Noroeste 37 Norte 0 -- -- 35
2019-06-12 21:00:00 25.3 24 Noroeste 34 Noroeste 0 -- -- 20
2019-06-12 20:00:00 27.5 18 Noroeste 32 Noroeste 0 -- -- 16
2019-06-12 19:00:00 28.4 17 Oeste 29 Oeste 0 -- -- 14
2019-06-12 18:00:00 28.6 15 Oeste 24 Noroeste 0 -- -- 15
2019-06-12 17:00:00 28.3 14 Noroeste 29 Oeste 0 -- -- 15
2019-06-12 16:00:00 28.2 10 Oeste 24 Sudoeste 0 -- -- 16
2019-06-12 15:00:00 27.1 10 Sudoeste 23 Oeste 0 -- -- 18
2019-06-12 14:00:00 26 11 Oeste 20 Oeste 0 -- -- 18
2019-06-12 13:00:00 25 13 Oeste 21 Oeste 0 -- -- 20
2019-06-12 12:00:00 23.6 8 Norte 20 Norte 0 -- -- 25
2019-06-12 11:00:00 21.3 9 Nordeste 20 Nordeste 0 -- -- 33
2019-06-12 10:00:00 18.8 13 Nordeste 19 Nordeste 0 -- -- 40
2019-06-12 09:00:00 15.5 9 Norte 15 Norte 0 -- -- 53
2019-06-12 08:00:00 11.9 6 Norte 10 Norte 0 -- -- 68
2019-06-12 07:00:00 11.2 5 Este 8 Sudeste 0 -- -- 67
2019-06-12 06:00:00 12.1 3 Norte 9 Norte 0 -- -- 64
2019-06-12 05:00:00 13.9 8 Norte 17 Norte 0 -- -- 59
2019-06-12 04:00:00 14.4 12 Norte 15 Norte 0 -- -- 59
2019-06-12 03:00:00 14.8 8 Norte 18 Norte 0 -- -- 58
2019-06-12 02:00:00 16.3 14 Norte 20 Norte 0 -- -- 54
2019-06-12 01:00:00 17.4 16 Norte 31 Norte 0 -- -- 51
2019-06-12 00:00:00 19.1 19 Norte 33 Norte 0 -- -- 46
2019-06-11 23:00:00 20.8 12 Nordeste 18 Norte 0 -- -- 24
2019-06-11 22:00:00 23.3 13 Norte 27 Nordeste 0 -- -- 21
2019-06-11 21:00:00 25.4 18 Nordeste 31 Nordeste 0 -- -- 19
2019-06-11 20:00:00 26.1 12 Nordeste 46 Norte 0 -- -- 21
2019-06-11 19:00:00 26.2 18 Nordeste 37 Norte 0 -- -- 20
2019-06-11 18:00:00 26.6 22 Nordeste 40 Este 0 -- -- 17
2019-06-11 17:00:00 26.8 21 Norte 39 Norte 0 -- -- 20
2019-06-11 16:00:00 26.2 19 Norte 38 Norte 0 -- -- 25
2019-06-11 15:00:00 25.3 22 Norte 35 Norte 0 -- -- 30
2019-06-11 14:00:00 23.8 13 Norte 36 Nordeste 0 -- -- 35
2019-06-11 13:00:00 22.8 21 Norte 39 Norte 0 -- -- 37
2019-06-11 12:00:00 21.6 15 Norte 26 Norte 0 -- -- 42
2019-06-11 11:00:00 19.2 14 Norte 24 Norte 0 -- -- 49
2019-06-11 10:00:00 16.6 12 Norte 27 Norte 0 -- -- 58
2019-06-11 09:00:00 14.6 17 Norte 29 Norte 0 -- -- 67
2019-06-11 08:00:00 13.2 14 Norte 25 Norte 0 -- -- 74
2019-06-11 07:00:00 12.4 11 Norte 23 Norte 0 -- -- 75
2019-06-11 06:00:00 12.2 2 Este 6 Norte 0 -- -- 67
2019-06-11 05:00:00 12.5 4 Norte 11 Norte 0 -- -- 67
2019-06-11 04:00:00 13.3 8 Noroeste 15 Noroeste 0 -- -- 63
2019-06-11 03:00:00 14 10 Noroeste 19 Noroeste 0 -- -- 62
2019-06-11 02:00:00 14.6 11 Noroeste 18 Noroeste 0 -- -- 58
2019-06-11 01:00:00 15.6 12 Noroeste 24 Noroeste 0 -- -- 54
2019-06-11 00:00:00 17.1 20 Norte 32 Noroeste 0 -- -- 47
2019-06-10 23:00:00 18.9 19 Noroeste 35 Noroeste 0 -- -- 39
2019-06-10 22:00:00 21.3 25 Noroeste 39 Noroeste 0 -- -- 36
2019-06-10 21:00:00 24.2 28 Noroeste 39 Noroeste 0 -- -- 30
2019-06-10 20:00:00 25.8 23 Noroeste 35 Noroeste 0 -- -- 26
2019-06-10 19:00:00 27.2 19 Norte 32 Norte 0 -- -- 24
2019-06-10 18:00:00 27.1 23 Noroeste 33 Norte 0 -- -- 26
2019-06-10 17:00:00 27.8 13 Noroeste 29 Norte 0 -- -- 26
2019-06-10 16:00:00 26.8 12 Noroeste 28 Norte 0 -- -- 28
2019-06-10 15:00:00 25.8 14 Noroeste 28 Oeste 0 -- -- 29
2019-06-10 14:00:00 25 9 Noroeste 21 Nordeste 0 -- -- 33
2019-06-10 13:00:00 22.8 8 Sudoeste 17 Noroeste 0 -- -- 42
2019-06-10 12:00:00 20.7 7 Oeste 14 Norte 0 -- -- 49
2019-06-10 11:00:00 17.9 8 Oeste 15 Oeste 0 -- -- 59
2019-06-10 10:00:00 16.7 4 Norte 12 Nordeste 0 -- -- 64
2019-06-10 09:00:00 14.5 5 Noroeste 9 Oeste 0 -- -- 74
2019-06-10 08:00:00 13.1 3 Norte 9 Nordeste 0 -- -- 81
2019-06-10 07:00:00 11.7 5 Nordeste 9 Este 0 -- -- 81
2019-06-10 06:00:00 12.3 4 Norte 9 Noroeste 0 -- -- 79
2019-06-10 05:00:00 13.3 3 Norte 11 Norte 0 -- -- 77
2019-06-10 04:00:00 13.7 4 Norte 8 Noroeste 0 -- -- 75
2019-06-10 03:00:00 14.8 0 Calma 14 Noroeste 0 -- -- 70
2019-06-10 02:00:00 15.8 9 Norte 21 Noroeste 0 -- -- 66
2019-06-10 01:00:00 17.1 11 Noroeste 22 Noroeste 0 -- -- 62
2019-06-10 00:00:00 18.2 16 Noroeste 28 Noroeste 0 -- -- 58
2019-06-09 23:00:00 19.5 19 Noroeste 42 Noroeste 0 -- -- 50
2019-06-09 22:00:00 21.2 21 Noroeste 37 Noroeste 0 -- -- 43
2019-06-09 21:00:00 23.1 26 Noroeste 38 Noroeste 0 -- -- 38
2019-06-09 20:00:00 24.7 21 Noroeste 39 Noroeste 0 -- -- 33
2019-06-09 19:00:00 25.4 23 Noroeste 35 Noroeste 0 -- -- 34
2019-06-09 18:00:00 25.9 23 Noroeste 37 Noroeste 0 -- -- 35
2019-06-09 17:00:00 26 21 Noroeste 36 Noroeste 0 -- -- 31
2019-06-09 16:00:00 25.7 17 Noroeste 35 Noroeste 0 -- -- 31
2019-06-09 15:00:00 25.1 12 Noroeste 28 Noroeste 0 -- -- 29
2019-06-09 14:00:00 23.2 13 Oeste 23 Noroeste 0 -- -- 33
2019-06-09 13:00:00 21.7 13 Oeste 26 Oeste 0 -- -- 36
2019-06-09 12:00:00 19.7 12 Noroeste 21 Norte 0 -- -- 39
2019-06-09 11:00:00 16.9 14 Noroeste 23 Noroeste 0 -- -- 50
2019-06-09 10:00:00 14.9 11 Oeste 21 Oeste 0 -- -- 62
2019-06-09 09:00:00 13.1 9 Noroeste 19 Noroeste 0 -- -- 72
2019-06-09 08:00:00 11 7 Noroeste 13 Noroeste 0 -- -- 82
2019-06-09 07:00:00 9.6 4 Noroeste 9 Noroeste 0 -- -- 78
2019-06-09 06:00:00 9.8 4 Norte 13 Norte 0 -- -- 72
2019-06-09 05:00:00 10.4 9 Norte 13 Norte 0 -- -- 67
2019-06-09 04:00:00 12 6 Noroeste 9 Noroeste 0 -- -- 63
2019-06-09 03:00:00 13.3 6 Noroeste 18 Norte 0 -- -- 56
2019-06-09 02:00:00 14.5 12 Norte 23 Norte 0 -- -- 51
2019-06-09 01:00:00 15.7 12 Norte 27 Norte 0 -- -- 48
2019-06-09 00:00:00 17.4 18 Norte 28 Norte 0 -- -- 44
2019-06-08 23:00:00 19.4 13 Norte 37 Noroeste 0 -- -- 45
2019-06-08 22:00:00 22.1 22 Norte 40 Noroeste 0 -- -- 40
2019-06-08 21:00:00 25 27 Noroeste 43 Noroeste 0 -- -- 32
2019-06-08 20:00:00 27.5 11 Oeste 23 Oeste 0 -- -- 23
2019-06-08 19:00:00 28.3 9 Sudoeste 17 Sudoeste 0 -- -- 19
2019-06-08 18:00:00 28.2 11 Sudoeste 18 Oeste 0 -- -- 19
2019-06-08 17:00:00 28.5 7 Oeste 20 Oeste 0 -- -- 12
2019-06-08 16:00:00 27.2 9 Oeste 23 Oeste 0 -- -- 19
2019-06-08 15:00:00 26.2 11 Oeste 20 Oeste 0 -- -- 22
2019-06-08 14:00:00 25.5 16 Oeste 26 Noroeste 0 -- -- 25
2019-06-08 13:00:00 24.2 10 Norte 21 Norte 0 -- -- 27
2019-06-08 12:00:00 22.3 13 Nordeste 23 Nordeste 0 -- -- 33
2019-06-08 11:00:00 19.2 9 Nordeste 19 Norte 0 -- -- 44
2019-06-08 10:00:00 17 14 Nordeste 20 Nordeste 0 -- -- 50
2019-06-08 09:00:00 14.1 6 Norte 14 Norte 0 -- -- 65
2019-06-08 08:00:00 11.1 0 Calma 10 Norte 0 -- -- 77
2019-06-08 07:00:00 9.5 5 Norte 10 Norte 0 -- -- 81
2019-06-08 06:00:00 10.4 4 Norte 9 Norte 0 -- -- 74
2019-06-08 05:00:00 11.3 2 Norte 8 Norte 0 -- -- 73
2019-06-08 04:00:00 12.2 2 Nordeste 12 Norte 0 -- -- 69
2019-06-08 03:00:00 13.2 5 Norte 13 Norte 0 -- -- 65
2019-06-08 02:00:00 14.5 6 Norte 25 Norte 0 -- -- 60
2019-06-08 01:00:00 15.7 15 Norte 33 Norte 0 -- -- 55
2019-06-08 00:00:00 17.2 21 Norte 33 Norte 0 -- -- 47
2019-06-07 23:00:00 18.5 14 Norte 21 Norte 0 -- -- 40
2019-06-07 22:00:00 19.8 10 Norte 27 Norte 0 -- -- 36
2019-06-07 21:00:00 22 14 Norte 25 Norte 0 -- -- 31
2019-06-07 20:00:00 22.7 14 Norte 26 Norte 0 -- -- 29
2019-06-07 19:00:00 23 13 Noroeste 24 Norte 0 -- -- 29
2019-06-07 18:00:00 22.6 11 Norte 27 Nordeste 0 -- -- 30
2019-06-07 17:00:00 22.1 9 Noroeste 29 Noroeste 0 -- -- 31
2019-06-07 16:00:00 21.5 17 Norte 30 Noroeste 0 -- -- 34
2019-06-07 15:00:00 20.9 17 Norte 29 Norte 0 -- -- 35
2019-06-07 14:00:00 20.1 10 Norte 32 Noroeste 0 -- -- 35
2019-06-07 13:00:00 18.3 11 Norte 30 Noroeste 0 -- -- 42
2019-06-07 12:00:00 17.1 15 Norte 28 Norte 0 -- -- 49
2019-06-07 11:00:00 16.5 13 Norte 30 Norte 0 -- -- 54
2019-06-07 10:00:00 14.7 14 Norte 22 Norte 0 -- -- 69
2019-06-07 09:00:00 12.9 6 Norte 11 Norte 0 -- -- 84
2019-06-07 08:00:00 11.9 0 Calma 6 Noroeste 0 -- -- 94
2019-06-07 07:00:00 10.9 4 Noroeste 6 Norte 0 -- -- 94
2019-06-07 06:00:00 11.4 4 Norte 10 Noroeste 0 -- -- 93
2019-06-07 05:00:00 11.9 6 Noroeste 11 Noroeste 0 -- -- 91
2019-06-07 04:00:00 12.7 9 Noroeste 19 Noroeste 0 -- -- 87
2019-06-07 03:00:00 13.7 12 Noroeste 19 Oeste 0 -- -- 85
2019-06-07 02:00:00 13.5 6 Noroeste 13 Noroeste 0 -- -- 88
2019-06-07 01:00:00 12.9 4 Norte 25 Noroeste 0.2 -- -- 88
2019-06-07 00:00:00 13.9 20 Noroeste 46 Oeste 0 -- -- 88
2019-06-06 23:00:00 17.7 28 Oeste 42 Oeste 0 -- -- 68
2019-06-06 22:00:00 18.8 28 Oeste 45 Oeste 0 -- -- 61
2019-06-06 21:00:00 19.4 29 Oeste 42 Sudoeste 0 -- -- 58
2019-06-06 20:00:00 20.8 26 Oeste 45 Oeste 0 -- -- 52
2019-06-06 19:00:00 22.9 26 Oeste 45 Oeste 0 -- -- 42
2019-06-06 18:00:00 23.2 25 Oeste 45 Sudoeste 0 -- -- 39
2019-06-06 17:00:00 22.6 26 Sudoeste 39 Oeste 0 -- -- 40
2019-06-06 16:00:00 22.5 24 Sudoeste 41 Oeste 0 -- -- 39
2019-06-06 15:00:00 21.9 17 Sudoeste 37 Sudoeste 0 -- -- 39
2019-06-06 14:00:00 20.8 16 Sudoeste 27 Sudoeste 0 -- -- 41
2019-06-06 13:00:00 19.4 14 Sudoeste 24 Sudoeste 0 -- -- 45
2019-06-06 12:00:00 17.7 10 Sudoeste 17 Sudoeste 0 -- -- 51
2019-06-06 11:00:00 16.2 6 Sudoeste 13 Oeste 0 -- -- 59
2019-06-06 10:00:00 14.8 7 Sudoeste 11 Oeste 0 -- -- 64
2019-06-06 09:00:00 13.2 5 Sur 8 Sur 0 -- -- 66
2019-06-06 08:00:00 10.1 6 Sudeste 9 Sudeste 0 -- -- 72
2019-06-06 07:00:00 9.2 6 Este 10 Este 0 -- -- 74
2019-06-06 06:00:00 10.2 4 Nordeste 11 Nordeste 0 -- -- 75
2019-06-06 05:00:00 10.5 4 Nordeste 7 Nordeste 0 -- -- 72
2019-06-06 04:00:00 11.3 5 Este 12 Norte 0 -- -- 65
2019-06-06 03:00:00 12.8 9 Norte 17 Norte 0 -- -- 61
2019-06-06 02:00:00 13.3 9 Norte 20 Noroeste 0 -- -- 56
2019-06-06 01:00:00 14.5 12 Norte 22 Norte 0 -- -- 51
2019-06-06 00:00:00 15.7 16 Norte 26 Norte 0 -- -- 46
2019-06-05 23:00:00 16.9 17 Norte 24 Norte 0 -- -- 42
2019-06-05 22:00:00 18.5 15 Noroeste 30 Noroeste 0 -- -- 34
2019-06-05 21:00:00 20.6 22 Noroeste 31 Noroeste 0 -- -- 30
2019-06-05 20:00:00 22 21 Noroeste 36 Noroeste 0 -- -- 29
2019-06-05 19:00:00 23 21 Noroeste 35 Oeste 0 -- -- 26
2019-06-05 18:00:00 22.7 17 Noroeste 33 Noroeste 0 -- -- 29
2019-06-05 17:00:00 22.3 18 Norte 34 Norte 0 -- -- 31
2019-06-05 16:00:00 22.4 17 Noroeste 30 Noroeste 0 -- -- 32
2019-06-05 15:00:00 21.4 15 Noroeste 32 Oeste 0 -- -- 37
2019-06-05 14:00:00 19.7 18 Noroeste 50 Noroeste 0 -- -- 39
2019-06-05 13:00:00 19.3 17 Noroeste 35 Noroeste 0 -- -- 46
2019-06-05 12:00:00 17.8 17 Norte 27 Noroeste 0 -- -- 52
2019-06-05 11:00:00 17.1 14 Norte 27 Noroeste 0 -- -- 55
2019-06-05 10:00:00 15.2 13 Norte 28 Noroeste 0 -- -- 67
2019-06-05 09:00:00 13.6 10 Noroeste 16 Oeste 0 -- -- 80
2019-06-05 08:00:00 11.7 5 Noroeste 14 Noroeste 0 -- -- 88
2019-06-05 07:00:00 11.4 9 Noroeste 18 Noroeste 0 -- -- 89
2019-06-05 06:00:00 11.8 10 Noroeste 21 Noroeste 0 -- -- 87
2019-06-05 05:00:00 12.4 14 Noroeste 25 Noroeste 0 -- -- 85
2019-06-05 04:00:00 13 13 Noroeste 26 Noroeste 0 -- -- 81
2019-06-05 03:00:00 13.5 12 Noroeste 23 Noroeste 0 -- -- 75
2019-06-05 02:00:00 14.1 12 Noroeste 22 Noroeste 0 -- -- 67
2019-06-05 01:00:00 14.9 14 Noroeste 23 Norte 0 -- -- 62
2019-06-05 00:00:00 16.3 19 Norte 41 Norte 0 -- -- 54
2019-06-04 23:00:00 17.6 21 Norte 41 Noroeste 0 -- -- 50
2019-06-04 22:00:00 19.2 20 Noroeste 32 Noroeste 0 -- -- 48
2019-06-04 21:00:00 21 19 Noroeste 34 Noroeste 0 -- -- 53
2019-06-04 20:00:00 20.7 21 Noroeste 39 Noroeste 0 -- -- 59
2019-06-04 19:00:00 20.5 26 Noroeste 50 Noroeste 0 -- -- 60
2019-06-04 18:00:00 23 32 Noroeste 48 Noroeste 0 -- -- 58
2019-06-04 17:00:00 25.3 15 Oeste 27 Oeste 0 -- -- 45
2019-06-04 16:00:00 24.7 8 Oeste 23 Oeste 0 -- -- 46
2019-06-04 15:00:00 24.2 13 Oeste 27 Noroeste 0 -- -- 49
2019-06-04 14:00:00 22.7 12 Noroeste 26 Noroeste 0 -- -- 55
2019-06-04 13:00:00 21.5 14 Noroeste 27 Noroeste 0 -- -- 59
2019-06-04 12:00:00 20.6 13 Noroeste 25 Oeste 0 -- -- 60
2019-06-04 11:00:00 19.6 11 Noroeste 19 Noroeste 0 -- -- 65
2019-06-04 10:00:00 18.4 8 Norte 22 Noroeste 0 -- -- 69
2019-06-04 09:00:00 17.5 5 Oeste 12 Oeste 0 -- -- 78
2019-06-04 08:00:00 16 4 Noroeste 14 Noroeste 0 -- -- 86
2019-06-04 07:00:00 15.2 8 Noroeste 16 Noroeste 0 -- -- 90
2019-06-04 06:00:00 15.3 6 Norte 15 Noroeste 0 -- -- 89
2019-06-04 05:00:00 15.8 12 Noroeste 17 Noroeste 0 -- -- 88
2019-06-04 04:00:00 16.7 9 Noroeste 17 Noroeste 0 -- -- 85
2019-06-04 03:00:00 17.9 6 Noroeste 22 Noroeste 0 -- -- 79
2019-06-04 02:00:00 19.4 10 Noroeste 24 Noroeste 0 -- -- 74
2019-06-04 01:00:00 20.8 17 Noroeste 32 Noroeste 0 -- -- 68
2019-06-04 00:00:00 22.5 14 Noroeste 27 Oeste 0 -- -- 49
2019-06-03 23:00:00 24.3 20 Oeste 34 Oeste 0 -- -- 38
2019-06-03 22:00:00 26.3 22 Oeste 32 Oeste 0 -- -- 47
2019-06-03 21:00:00 29.2 22 Oeste 36 Noroeste 0 -- -- 29
2019-06-03 20:00:00 31 26 Oeste 39 Oeste 0 -- -- 23
2019-06-03 19:00:00 32.7 20 Oeste 34 Oeste 0 -- -- 22
2019-06-03 18:00:00 33.2 20 Oeste 32 Oeste 0 -- -- 19
2019-06-03 17:00:00 33.7 16 Oeste 31 Sudoeste 0 -- -- 19
2019-06-03 16:00:00 33.2 16 Sudoeste 26 Sur 0 -- -- 18
2019-06-03 15:00:00 32.5 15 Oeste 30 Sudoeste 0 -- -- 17
2019-06-03 14:00:00 31.2 16 Sudoeste 25 Sudoeste 0 -- -- 18
2019-06-03 13:00:00 29.4 12 Sudoeste 17 Sudoeste 0 -- -- 21
2019-06-03 12:00:00 27.4 9 Sudoeste 14 Oeste 0 -- -- 20
2019-06-03 11:00:00 24.5 6 Oeste 10 Oeste 0 -- -- 31
2019-06-03 10:00:00 21.7 4 Oeste 8 Oeste 0 -- -- 43
2019-06-03 09:00:00 19.8 4 Sur 6 Sur 0 -- -- 53
2019-06-03 08:00:00 17.5 2 Noroeste 4 Noroeste 0 -- -- 55
2019-06-03 07:00:00 17.7 0 Calma 7 Norte 0 -- -- 53
2019-06-03 06:00:00 18.2 7 Norte 15 Norte 0 -- -- 50
2019-06-03 05:00:00 19.6 11 Norte 16 Norte 0 -- -- 45
2019-06-03 04:00:00 20.9 13 Norte 17 Norte 0 -- -- 44
2019-06-03 03:00:00 22.4 10 Norte 23 Norte 0 -- -- 40
2019-06-03 02:00:00 24 9 Norte 26 Norte 0 -- -- 34
2019-06-03 01:00:00 25.3 17 Norte 32 Norte 0 -- -- 31
2019-06-03 00:00:00 25.9 10 Norte 27 Norte 0 -- -- 32
2019-06-02 23:00:00 27.5 17 Norte 35 Norte 0 -- -- 27
2019-06-02 22:00:00 29.3 21 Norte 39 Norte 0 -- -- 23
2019-06-02 21:00:00 31.4 23 Norte 39 Noroeste 0 -- -- 20
2019-06-02 20:00:00 34.3 22 Norte 33 Noroeste 0 -- -- 17
2019-06-02 19:00:00 36.2 10 Sudoeste 19 Sudoeste 0 -- -- 17
2019-06-02 18:00:00 36.2 9 Sudoeste 16 Oeste 0 -- -- 16
2019-06-02 17:00:00 36.3 9 Oeste 19 Oeste 0 -- -- 18
2019-06-02 16:00:00 35.7 12 Oeste 20 Noroeste 0 -- -- 19
2019-06-02 15:00:00 34.2 11 Sudoeste 17 Sudoeste 0 -- -- 23
2019-06-02 14:00:00 31.1 6 Oeste 15 Oeste 0 -- -- 27
2019-06-02 13:00:00 29.1 8 Oeste 15 Oeste 0 -- -- 33
2019-06-02 12:00:00 27.1 7 Sudoeste 13 Sudoeste 0 -- -- 36
2019-06-02 11:00:00 24.7 4 Oeste 13 Sudoeste 0 -- -- 40
2019-06-02 10:00:00 22.8 8 Sudoeste 17 Sur 0 -- -- 43
2019-06-02 09:00:00 20.9 11 Sur 17 Sur 0 -- -- 44
2019-06-02 08:00:00 19.1 8 Sur 15 Sur 0 -- -- 48
2019-06-02 07:00:00 18.8 9 Sur 14 Sur 0 -- -- 48
2019-06-02 06:00:00 19.3 9 Sur 17 Sur 0 -- -- 46
2019-06-02 05:00:00 20 10 Sur 17 Sur 0 -- -- 45
2019-06-02 04:00:00 21.2 12 Sur 20 Sudeste 0 -- -- 42
2019-06-02 03:00:00 22.1 11 Sudeste 17 Sur 0 -- -- 41
2019-06-02 02:00:00 23.6 11 Sur 16 Sur 0 -- -- 38
2019-06-02 01:00:00 25.1 7 Sur 17 Sur 0 -- -- 37
2019-06-02 00:00:00 27.1 12 Sur 26 Sudoeste 0 -- -- 36
2019-06-01 23:00:00 29.7 27 Sudoeste 38 Sudoeste 0 -- -- 26
2019-06-01 22:00:00 32 12 Nordeste 18 Nordeste 0 -- -- 20
2019-06-01 21:00:00 34.4 14 Nordeste 23 Norte 0 -- -- 18
2019-06-01 20:00:00 35.7 11 Norte 24 Nordeste 0 -- -- 17
2019-06-01 19:00:00 36.7 12 Noroeste 24 Norte 0 -- -- 16
2019-06-01 18:00:00 37 12 Oeste 22 Noroeste 0 -- -- 17
2019-06-01 17:00:00 36.4 16 Noroeste 25 Noroeste 0 -- -- 17
2019-06-01 16:00:00 35.6 13 Oeste 33 Noroeste 0 -- -- 19
2019-06-01 15:00:00 34.5 14 Oeste 45 Noroeste 0 -- -- 20
2019-06-01 14:00:00 33.1 10 Noroeste 22 Oeste 0 -- -- 22
2019-06-01 13:00:00 31.3 12 Oeste 18 Oeste 0 -- -- 24
2019-06-01 12:00:00 29.2 10 Oeste 19 Noroeste 0 -- -- 28
2019-06-01 11:00:00 26.7 7 Norte 13 Oeste 0 -- -- 34
2019-06-01 10:00:00 23.4 6 Noroeste 9 Oeste 0 -- -- 41
2019-06-01 09:00:00 21.3 0 Calma 6 Sudeste 0 -- -- 44
2019-06-01 08:00:00 18.5 6 Sudeste 8 Sudeste 0 -- -- 50
2019-06-01 07:00:00 17.9 3 Sur 10 Sur 0 -- -- 53
2019-06-01 06:00:00 18.5 9 Sudeste 13 Sur 0 -- -- 50
2019-06-01 05:00:00 19.5 11 Sur 17 Sur 0 -- -- 50
2019-06-01 04:00:00 20.7 11 Sur 22 Sudoeste 0 -- -- 46
2019-06-01 03:00:00 21.9 15 Sudoeste 22 Sudoeste 0 -- -- 40
2019-06-01 02:00:00 23.4 9 Sur 14 Sur 0 -- -- 36
2019-06-01 01:00:00 26 5 Sudoeste 13 Sudoeste 0 -- -- 32
2019-06-01 00:00:00 27.7 12 Sudoeste 22 Sur 0 -- -- 28
2019-05-31 23:00:00 30.1 15 Este 18 Este 0 -- -- 18
2019-05-31 22:00:00 31.3 12 Nordeste 22 Nordeste 0 -- -- 17
2019-05-31 21:00:00 33.8 14 Nordeste 28 Este 0 -- -- 17
2019-05-31 20:00:00 34.8 19 Nordeste 39 Nordeste 0 -- -- 17
2019-05-31 19:00:00 35.4 12 Nordeste 29 Nordeste 0 -- -- 17
2019-05-31 18:00:00 35.4 12 Este 28 Nordeste 0 -- -- 17
2019-05-31 17:00:00 35.1 12 Sudeste 33 Este 0 -- -- 17
2019-05-31 16:00:00 34.6 18 Este 39 Nordeste 0 -- -- 18
2019-05-31 15:00:00 33.6 15 Este 33 Este 0 -- -- 20
2019-05-31 14:00:00 32.4 15 Nordeste 29 Este 0 -- -- 21
2019-05-31 13:00:00 30.9 13 Nordeste 30 Nordeste 0 -- -- 26
2019-05-31 12:00:00 29.5 15 Nordeste 26 Norte 0 -- -- 28
2019-05-31 11:00:00 27.2 14 Nordeste 21 Norte 0 -- -- 33
2019-05-31 10:00:00 24.6 9 Nordeste 15 Nordeste 0 -- -- 39
2019-05-31 09:00:00 20.7 5 Nordeste 9 Nordeste 0 -- -- 56
2019-05-31 08:00:00 16.5 4 Nordeste 9 Este 0 -- -- 66
2019-05-31 07:00:00 15.9 6 Este 9 Este 0 -- -- 67
2019-05-31 06:00:00 17.1 6 Sudeste 9 Sudeste 0 -- -- 67
2019-05-31 05:00:00 18.3 5 Sur 9 Sudoeste 0 -- -- 65
2019-05-31 04:00:00 19.2 8 Sudoeste 12 Sur 0 -- -- 60
2019-05-31 03:00:00 20.2 7 Sur 14 Sur 0 -- -- 55
2019-05-31 02:00:00 21.5 12 Sudoeste 19 Sudoeste 0 -- -- 49
2019-05-31 01:00:00 23.8 9 Sudoeste 16 Sur 0 -- -- 43
2019-05-31 00:00:00 25.9 12 Sudoeste 22 Sudoeste 0 -- -- 38
2019-05-30 23:00:00 28.3 13 Este 20 Este 0 -- -- 19
2019-05-30 22:00:00 30.3 14 Nordeste 22 Nordeste 0 -- -- 18
2019-05-30 21:00:00 32.8 15 Nordeste 33 Nordeste 0 -- -- 15
2019-05-30 20:00:00 33.9 16 Nordeste 35 Nordeste 0 -- -- 15
2019-05-30 19:00:00 34.5 17 Nordeste 34 Este 0 -- -- 15
2019-05-30 18:00:00 34.9 10 Este 28 Nordeste 0 -- -- 15
2019-05-30 17:00:00 34.6 12 Este 30 Este 0 -- -- 15
2019-05-30 16:00:00 33.7 17 Nordeste 37 Este 0 -- -- 14
2019-05-30 15:00:00 32.9 16 Este 33 Este 0 -- -- 15
2019-05-30 14:00:00 32 21 Este 38 Este 0 -- -- 16
2019-05-30 13:00:00 31 21 Este 36 Nordeste 0 -- -- 19
2019-05-30 12:00:00 30 20 Este 39 Este 0 -- -- 22
2019-05-30 11:00:00 28.7 19 Este 31 Este 0 -- -- 24
2019-05-30 10:00:00 24.3 17 Nordeste 27 Nordeste 0 -- -- 31
2019-05-30 09:00:00 20.7 19 Nordeste 27 Nordeste 0 -- -- 40
2019-05-30 08:00:00 18.3 -- -- -- -- 0 -- -- --
2019-05-30 07:00:00 17.9 14 Nordeste 20 Nordeste 0 -- -- 48
2019-05-30 06:00:00 18.1 6 Nordeste 10 Nordeste 0 -- -- 45
2019-05-30 05:00:00 19.6 5 Este 23 Nordeste 0 -- -- 39
2019-05-30 04:00:00 20.6 18 Nordeste 23 Nordeste 0 -- -- 36
2019-05-30 03:00:00 21.6 12 Nordeste 21 Nordeste 0 -- -- 34
2019-05-30 02:00:00 22.6 14 Nordeste 18 Nordeste 0 -- -- 32
2019-05-30 01:00:00 23.8 4 Nordeste 18 Este 0 -- -- 31
2019-05-30 00:00:00 24.9 14 Este 18 Nordeste 0 -- -- 27
2019-05-29 23:00:00 26.7 13 Este 15 Este 0 -- -- 24
2019-05-29 22:00:00 28.4 8 Este 25 Este 0 -- -- 21
2019-05-29 21:00:00 31.1 18 Este 34 Este 0 -- -- 17
2019-05-29 20:00:00 31.7 22 Este 35 Nordeste 0 -- -- 18
2019-05-29 19:00:00 31.9 18 Nordeste 35 Este 0 -- -- 19
2019-05-29 18:00:00 31.7 21 Este 37 Este 0 -- -- 19
2019-05-29 17:00:00 31.7 18 Este 41 Este 0 -- -- 19
2019-05-29 16:00:00 31.3 17 Este 34 Este 0 -- -- 20
2019-05-29 15:00:00 30.6 22 Este 35 Nordeste 0 -- -- 21
2019-05-29 14:00:00 30 17 Este 36 Este 0 -- -- 22
2019-05-29 13:00:00 28.8 19 Este 38 Este 0 -- -- 23
2019-05-29 12:00:00 27.6 24 Este 45 Nordeste 0 -- -- 24
2019-05-29 11:00:00 26.3 23 Este 40 Nordeste 0 -- -- 26
2019-05-29 10:00:00 24.8 20 Este 33 Este 0 -- -- 27
2019-05-29 09:00:00 21.6 9 Norte 15 Nordeste 0 -- -- 34
2019-05-29 08:00:00 18.9 9 Nordeste 16 Nordeste 0 -- -- 38
2019-05-29 07:00:00 18.9 13 Nordeste 26 Nordeste 0 -- -- 37
2019-05-29 06:00:00 19.6 18 Nordeste 31 Nordeste 0 -- -- 36
2019-05-29 05:00:00 19.7 19 Nordeste 26 Nordeste 0 -- -- 35
2019-05-29 04:00:00 20.1 18 Nordeste 25 Nordeste 0 -- -- 35
2019-05-29 03:00:00 21.4 17 Nordeste 25 Nordeste 0 -- -- 33
2019-05-29 02:00:00 21.8 13 Nordeste 19 Nordeste 0 -- -- 32
2019-05-29 01:00:00 22.9 12 Norte 21 Norte 0 -- -- 29
2019-05-29 00:00:00 23.6 10 Norte 15 Norte 0 -- -- 27
2019-05-28 23:00:00 24.9 12 Nordeste 15 Nordeste 0 -- -- 24
2019-05-28 22:00:00 28.7 10 Nordeste 23 Nordeste 0 -- -- 18
2019-05-28 21:00:00 31.3 16 Nordeste 34 Este 0 -- -- 16
2019-05-28 20:00:00 32.5 20 Nordeste 32 Norte 0 -- -- 19
2019-05-28 19:00:00 33.2 17 Norte 35 Norte 0 -- -- 19
2019-05-28 18:00:00 33.4 21 Norte 34 Nordeste 0 -- -- 21
2019-05-28 17:00:00 33 18 Nordeste 30 Norte 0 -- -- 24
2019-05-28 16:00:00 32.7 14 Nordeste 34 Nordeste 0 -- -- 24
2019-05-28 15:00:00 31.2 14 Nordeste 32 Norte 0 -- -- 27
2019-05-28 14:00:00 29.5 18 Norte 28 Norte 0 -- -- 33
2019-05-28 13:00:00 27.8 13 Norte 23 Nordeste 0 -- -- 38
2019-05-28 12:00:00 24.9 12 Norte 21 Norte 0 -- -- 45
2019-05-28 11:00:00 21.9 9 Nordeste 18 Nordeste 0 -- -- 54
2019-05-28 10:00:00 18.2 6 Oeste 10 Oeste 0 -- -- 71
2019-05-28 09:00:00 16.4 0 Calma 6 Noroeste 0 -- -- 77
2019-05-28 08:00:00 14.2 4 Noroeste 6 Noroeste 0 -- -- 85
2019-05-28 07:00:00 13.7 5 Noroeste 8 Noroeste 0 -- -- 86
2019-05-28 06:00:00 14.1 0 Calma 9 Norte 0 -- -- 85
2019-05-28 05:00:00 14.8 4 Noroeste 13 Norte 0 -- -- 81
2019-05-28 04:00:00 15.4 6 Norte 9 Norte 0 -- -- 81
2019-05-28 03:00:00 16.2 5 Norte 11 Noroeste 0 -- -- 77
2019-05-28 02:00:00 17.4 6 Noroeste 13 Noroeste 0 -- -- 73
2019-05-28 01:00:00 18.8 7 Noroeste 20 Noroeste 0 -- -- 66
2019-05-28 00:00:00 20.2 11 Noroeste 25 Norte 0 -- -- 60
2019-05-27 23:00:00 22.1 8 Noroeste 19 Norte 0 -- -- 54
2019-05-27 22:00:00 24.3 13 Noroeste 28 Noroeste 0 -- -- 47
2019-05-27 21:00:00 27.5 19 Norte 35 Noroeste 0 -- -- 35
2019-05-27 20:00:00 30.1 22 Noroeste 37 Noroeste 0 -- -- 32
2019-05-27 19:00:00 31.8 20 Noroeste 32 Norte 0 -- -- 30
2019-05-27 18:00:00 32.4 17 Noroeste 31 Noroeste 0 -- -- 29
2019-05-27 17:00:00 32.4 18 Norte 29 Noroeste 0 -- -- 27
2019-05-27 16:00:00 32.9 14 Norte 31 Noroeste 0 -- -- 23
2019-05-27 15:00:00 32.3 12 Oeste 23 Noroeste 0 -- -- 27
2019-05-27 14:00:00 31.6 10 Noroeste 20 Norte 0 -- -- 26
2019-05-27 13:00:00 29.6 10 Oeste 17 Norte 0 -- -- 34
2019-05-27 12:00:00 27.2 8 Norte 18 Norte 0 -- -- 38
2019-05-27 11:00:00 24.8 5 Norte 13 Norte 0 -- -- 46
2019-05-27 10:00:00 20.4 7 Oeste 12 Oeste 0 -- -- 61
2019-05-27 09:00:00 18.6 3 Nordeste 12 Norte 0 -- -- 67
2019-05-27 08:00:00 16.4 2 Norte 11 Norte 0 -- -- 75
2019-05-27 07:00:00 16 5 Norte 8 Norte 0 -- -- 74
2019-05-27 06:00:00 16.2 0 Calma 7 Sudeste 0 -- -- 73
2019-05-27 05:00:00 16.8 6 Norte 12 Norte 0 -- -- 71
2019-05-27 04:00:00 18.5 3 Norte 9 Norte 0 -- -- 67
2019-05-27 03:00:00 19.6 5 Nordeste 8 Norte 0 -- -- 62
2019-05-27 02:00:00 21.1 5 Norte 20 Norte 0 -- -- 57
2019-05-27 01:00:00 22.6 14 Norte 28 Norte 0 -- -- 53
2019-05-27 00:00:00 24.4 16 Norte 27 Noroeste 0 -- -- 48
2019-05-26 23:00:00 26.2 17 Norte 31 Norte 0 -- -- 43
2019-05-26 22:00:00 28 9 Norte 24 Nordeste 0 -- -- 25
2019-05-26 21:00:00 31.4 14 Nordeste 35 Nordeste 0 -- -- 20
2019-05-26 20:00:00 32.3 22 Nordeste 35 Nordeste 0 -- -- 19
2019-05-26 19:00:00 32.5 20 Nordeste 43 Norte 0 -- -- 19
2019-05-26 18:00:00 32.3 19 Norte 35 Nordeste 0 -- -- 20
2019-05-26 17:00:00 32.2 15 Norte 36 Norte 0 -- -- 23
2019-05-26 16:00:00 30.7 17 Nordeste 35 Este 0 -- -- 24
2019-05-26 15:00:00 29.9 20 Norte 36 Norte 0 -- -- 25
2019-05-26 14:00:00 28.6 16 Norte 37 Norte 0 -- -- 27
2019-05-26 13:00:00 28 16 Nordeste 30 Nordeste 0 -- -- 27
2019-05-26 12:00:00 26.8 9 Nordeste 26 Norte 0 -- -- 27
2019-05-26 11:00:00 25.1 15 Nordeste 27 Norte 0 -- -- 30
2019-05-26 10:00:00 22.9 20 Nordeste 31 Nordeste 0 -- -- 33
2019-05-26 09:00:00 20.4 19 Nordeste 30 Nordeste 0 -- -- 38
2019-05-26 08:00:00 17.1 16 Nordeste 26 Norte 0 -- -- 45
2019-05-26 07:00:00 16.8 18 Nordeste 30 Nordeste 0 -- -- 45
2019-05-26 06:00:00 18 15 Nordeste 35 Nordeste 0 -- -- 41
2019-05-26 05:00:00 18.5 18 Nordeste 26 Nordeste 0 -- -- 40
2019-05-26 04:00:00 17.1 5 Este 13 Norte 0 -- -- 52
2019-05-26 03:00:00 17.5 0 Calma 11 Norte 0 -- -- 44
2019-05-26 02:00:00 18.3 9 Norte 16 Norte 0 -- -- 40
2019-05-26 01:00:00 20.3 14 Nordeste 17 Nordeste 0 -- -- 34
2019-05-26 00:00:00 21.1 10 Norte 14 Nordeste 0 -- -- 34